Shirland, IL (61079)

6:20 PM CDT on April 25, 2015 (GMT -0500)
Newark Township | | Change Station
CLOSE
Current Station
Personal Weather Station
Location: Beloit, WI
Elevation: 781 ft
Nearby Weather Stations

Elev 781 ft 42.53 °N, 89.20 °W | Updated 2 minutes ago

Overcast
Overcast
45.5 °F
Feels Like 46 °F
N
1.0
Wind Variable Wind from NNE
Gusts 7.0 mph

Today
High -- | Low -- °F
--% Chance of Precip.
Yesterday
High -- | Low -- °F
Precip. -- in
6:00 AM 7:49 PM
Waxing Crescent, 50% visible
Pressure 29.81 in
Visibility 8.0 miles
Clouds Overcast 6500 ft
Windchill 46 °F
Dew Point 34 °F
Humidity 65%
Rainfall -999.00 in
Snow Depth Not available.
UV 1 out of 12
Pollen 2.90 out of 12
Air Quality Not available.
Flu Activity Regional
METAR KJVL 252245Z 07015KT 8SM OVC065 09/00 A2981

More Conditions Fewer Conditions

Pressure 29.81 in
Visibility 8.0 miles
Clouds Overcast 6500 ft
Windchill 46 °F
Dew Point 34 °F
Humidity 65%
Rainfall -999.00 in
Snow Depth Not available.
UV 1 out of 12
Pollen 2.90 out of 12
Air Quality Not available.
Flu Activity Regional
METAR KJVL 252245Z 07015KT 8SM OVC065 09/00 A2981

More Conditions Fewer Conditions

10-Day Weather Forecast

Almanac

Astronomy

Apr. 25, 2015 Rise Set
Actual Time
Civil Twilight
Nautical Twilight
Astronomical Twilight
Moon
Length of Visible Light
Length of Day
Tomorrow will be .
, % of the Moon is Illuminated

Today's Extremes

State Highs State Lows

Community

WunderPhotos

Upload Photos

1,816,845 photos uploaded!

WunderBlogs® & News

Nearby

Air Quality

  Air Quality AQ Index Pollutant
Not available.

Snow Depth

Station Depth Elevation

Earthquake Activity

City Distance Mag. Time & Date
Minimum magnitude displayed is 2.5.

Coastal Water Temperatures

Place Temperature

Stations

Nearby Weather Stations

Station Location Temp. Windchill Dew Point Humidity Wind Precip. Elev Updated Type